createdAt,value
2022-09-04T00:01:30.414Z,25.32
2022-09-04T00:04:10.288Z,25.17
2022-09-04T00:06:49.653Z,25.69
2022-09-04T00:09:43.821Z,25.67
2022-09-04T00:12:10.653Z,25.59
2022-09-04T00:15:03.797Z,25.83
2022-09-04T00:17:54.572Z,25.79
2022-09-04T00:20:43.433Z,25.78
2022-09-04T00:23:37.128Z,25.52
2022-09-04T00:26:31.738Z,25.16
2022-09-04T00:29:15.113Z,25.02
2022-09-04T00:31:51.933Z,25.13
2022-09-04T00:34:42.110Z,25.00
2022-09-04T00:37:18.988Z,25.02
2022-09-04T00:40:14.095Z,24.79
2022-09-04T00:43:07.027Z,25.00
2022-09-04T00:45:58.650Z,25.07
2022-09-04T00:48:48.314Z,24.83
2022-09-04T00:51:27.424Z,24.96
2022-09-04T00:54:30.338Z,24.89
2022-09-04T00:57:24.744Z,24.36
2022-09-04T01:00:18.749Z,24.72
2022-09-04T01:03:21.961Z,24.74
2022-09-04T01:06:01.139Z,24.63
2022-09-04T01:08:55.956Z,24.77
2022-09-04T01:11:43.190Z,25.05
2022-09-04T01:14:21.248Z,25.02
2022-09-04T01:17:13.773Z,25.06
2022-09-04T01:20:07.119Z,25.40
2022-09-04T01:22:47.172Z,25.05
2022-09-04T01:25:51.512Z,24.89
2022-09-04T01:28:30.314Z,25.14
2022-09-04T01:31:35.202Z,25.12
2022-09-04T01:34:28.452Z,24.63
2022-09-04T01:37:19.888Z,25.14
2022-09-04T01:40:02.164Z,25.11
2022-09-04T01:43:01.494Z,25.24
2022-09-04T01:46:11.408Z,24.90
2022-09-04T01:48:48.872Z,25.02
2022-09-04T01:51:32.672Z,24.98
2022-09-04T01:54:35.245Z,25.19
2022-09-04T01:57:13.404Z,25.19
2022-09-04T02:00:15.153Z,25.14
2022-09-04T02:03:08.042Z,24.87
2022-09-04T02:06:12.348Z,24.89
2022-09-04T02:09:04.473Z,24.84
2022-09-04T02:11:31.978Z,25.04
2022-09-04T02:14:29.384Z,25.28
2022-09-04T02:17:18.539Z,24.93
2022-09-04T02:20:10.072Z,24.93
2022-09-04T02:22:44.556Z,24.43
2022-09-04T02:25:28.129Z,24.31
2022-09-04T02:28:16.744Z,24.13
2022-09-04T02:31:01.852Z,24.58
2022-09-04T02:33:46.711Z,24.43
2022-09-04T02:36:15.795Z,24.53
2022-09-04T02:39:14.917Z,24.72
2022-09-04T02:42:00.604Z,25.10
2022-09-04T02:44:30.449Z,25.35
2022-09-04T02:47:24.857Z,24.91
2022-09-04T02:50:03.253Z,25.04
2022-09-04T02:52:51.887Z,25.08
2022-09-04T02:55:37.474Z,25.25
2022-09-04T02:58:22.973Z,25.08
2022-09-04T03:00:55.057Z,24.78
2022-09-04T03:03:29.449Z,24.72
2022-09-04T03:06:22.950Z,24.62
2022-09-04T03:08:53.428Z,24.64
2022-09-04T03:11:33.267Z,24.55
2022-09-04T03:14:07.660Z,24.40
2022-09-04T03:16:51.784Z,24.46
2022-09-04T03:19:28.230Z,24.52
2022-09-04T03:22:21.706Z,24.70
2022-09-04T03:25:25.665Z,24.29
2022-09-04T03:27:52.246Z,24.07
2022-09-04T03:30:18.888Z,24.03
2022-09-04T03:33:08.611Z,24.06
2022-09-04T03:35:49.055Z,24.08
2022-09-04T03:38:27.213Z,23.77
2022-09-04T03:41:18.206Z,23.51
2022-09-04T03:43:47.787Z,23.02
2022-09-04T03:46:52.224Z,23.37
2022-09-04T03:49:44.900Z,23.81
2022-09-04T03:52:26.030Z,23.83
2022-09-04T03:55:13.488Z,23.85
2022-09-04T03:58:04.371Z,24.22
2022-09-04T04:00:44.233Z,24.29
2022-09-04T04:03:42.745Z,24.22
2022-09-04T04:06:23.369Z,24.33
2022-09-04T04:09:21.484Z,23.98
2022-09-04T04:12:13.515Z,24.21
2022-09-04T04:15:10.087Z,23.96
2022-09-04T04:18:04.404Z,23.70
2022-09-04T04:20:40.099Z,23.73
2022-09-04T04:23:18.541Z,23.85
2022-09-04T04:26:00.999Z,23.70
2022-09-04T04:28:59.981Z,23.40
2022-09-04T04:31:38.887Z,23.70
2022-09-04T04:34:05.765Z,23.98
2022-09-04T04:36:40.232Z,23.96
2022-09-04T04:39:30.460Z,23.95
2022-09-04T04:42:09.260Z,23.65
2022-09-04T04:45:23.472Z,23.75
2022-09-04T04:48:36.687Z,23.42
2022-09-04T04:51:24.462Z,23.43
2022-09-04T04:53:58.156Z,23.28
2022-09-04T04:56:45.998Z,23.43
2022-09-04T04:59:26.029Z,23.58
2022-09-04T05:02:07.800Z,23.72
2022-09-04T05:05:02.573Z,23.71
2022-09-04T05:08:09.512Z,23.97
2022-09-04T05:10:45.369Z,24.47
2022-09-04T05:13:21.018Z,25.32
2022-09-04T05:16:16.499Z,26.45
2022-09-04T05:19:06.991Z,27.13
2022-09-04T05:21:44.445Z,27.60
2022-09-04T05:24:22.607Z,28.48
2022-09-04T05:27:04.109Z,29.32
2022-09-04T05:29:52.343Z,30.27
2022-09-04T05:32:37.711Z,30.33
2022-09-04T05:35:24.515Z,31.13
2022-09-04T05:38:28.451Z,31.72
2022-09-04T05:41:16.747Z,31.21
2022-09-04T05:44:24.226Z,31.14
2022-09-04T05:47:08.796Z,31.42
2022-09-04T05:49:48.098Z,31.74
2022-09-04T05:53:08.043Z,32.23
2022-09-04T05:55:53.355Z,32.86
2022-09-04T05:58:45.588Z,33.37
2022-09-04T06:01:52.095Z,33.93
2022-09-04T06:04:45.147Z,34.14
2022-09-04T06:07:34.076Z,35.02
2022-09-04T06:10:36.129Z,35.28
2022-09-04T06:13:09.897Z,35.85
2022-09-04T06:15:58.023Z,35.92
2022-09-04T06:18:46.416Z,37.24
2022-09-04T06:21:32.159Z,37.38
2022-09-04T06:24:29.868Z,37.91
2022-09-04T06:27:08.469Z,38.07
2022-09-04T06:29:59.008Z,37.92
2022-09-04T06:32:40.720Z,38.25
2022-09-04T06:35:27.112Z,39.18
2022-09-04T06:38:14.333Z,39.42
2022-09-04T06:40:59.340Z,40.13
2022-09-04T06:43:38.620Z,39.84
2022-09-04T06:46:13.350Z,39.14
2022-09-04T06:48:54.856Z,40.08
2022-09-04T06:51:47.043Z,40.72
2022-09-04T06:54:42.135Z,40.79
2022-09-04T06:57:35.165Z,40.77
2022-09-04T07:00:10.951Z,39.69
2022-09-04T07:03:01.867Z,39.18
2022-09-04T07:05:44.015Z,37.73
2022-09-04T07:08:29.753Z,37.98
2022-09-04T07:11:14.853Z,36.21
2022-09-04T07:14:22.953Z,36.41
2022-09-04T07:17:14.656Z,36.55
2022-09-04T07:20:01.681Z,36.81
2022-09-04T07:22:39.729Z,36.73
2022-09-04T07:25:17.177Z,36.47
2022-09-04T07:28:11.426Z,36.34
2022-09-04T07:31:08.216Z,36.38
2022-09-04T07:33:55.144Z,37.62
2022-09-04T07:36:49.090Z,38.88
2022-09-04T07:39:36.147Z,38.83
2022-09-04T07:42:18.120Z,37.29
2022-09-04T07:44:59.115Z,37.47
2022-09-04T07:47:36.566Z,37.37
2022-09-04T07:50:11.185Z,36.91
2022-09-04T07:53:11.141Z,37.65
2022-09-04T07:55:46.773Z,37.42
2022-09-04T07:58:39.731Z,37.51
2022-09-04T08:01:31.340Z,38.06
2022-09-04T08:04:16.722Z,37.66
2022-09-04T08:07:10.781Z,37.55
2022-09-04T08:09:56.476Z,38.43
2022-09-04T08:12:34.844Z,38.10
2022-09-04T08:15:24.217Z,38.25
2022-09-04T08:18:26.029Z,38.72
2022-09-04T08:21:14.715Z,38.89
2022-09-04T08:24:05.438Z,39.44
2022-09-04T08:26:51.896Z,39.21
2022-09-04T08:29:57.452Z,39.37
2022-09-04T08:32:58.912Z,39.72
2022-09-04T08:35:46.793Z,39.69
2022-09-04T08:38:45.967Z,40.06
2022-09-04T08:41:28.977Z,40.40
2022-09-04T08:44:33.172Z,39.68
2022-09-04T08:47:02.944Z,39.87
2022-09-04T08:49:55.690Z,39.51
2022-09-04T08:52:44.985Z,39.33
2022-09-04T08:55:46.825Z,37.45
2022-09-04T08:58:47.531Z,37.86
2022-09-04T09:01:32.882Z,38.02
2022-09-04T09:04:08.186Z,38.25
2022-09-04T09:06:46.194Z,37.91
2022-09-04T09:09:59.762Z,36.71
2022-09-04T09:12:57.209Z,36.77
2022-09-04T09:15:45.458Z,36.98
2022-09-04T09:18:38.216Z,36.63
2022-09-04T09:21:12.213Z,36.54
2022-09-04T09:24:17.210Z,36.22
2022-09-04T09:27:14.733Z,36.18
2022-09-04T09:30:08.852Z,35.94
2022-09-04T09:32:47.513Z,36.02
2022-09-04T09:35:32.427Z,35.27
2022-09-04T09:38:10.472Z,35.02
2022-09-04T09:41:18.761Z,35.67
2022-09-04T09:44:15.332Z,35.83
2022-09-04T09:47:26.780Z,36.77
2022-09-04T09:50:34.572Z,35.58
2022-09-04T09:53:34.956Z,34.34
2022-09-04T09:56:30.637Z,33.95
2022-09-04T09:59:22.932Z,34.52
2022-09-04T10:02:14.065Z,34.76
2022-09-04T10:05:05.165Z,34.14
2022-09-04T10:07:53.367Z,35.10
2022-09-04T10:10:57.409Z,34.94
2022-09-04T10:14:02.192Z,35.59
2022-09-04T10:17:02.564Z,35.99
2022-09-04T10:19:53.715Z,35.33
2022-09-04T10:22:44.431Z,36.24
2022-09-04T10:25:41.864Z,35.83
2022-09-04T10:28:47.360Z,36.06
2022-09-04T10:31:42.157Z,35.81
2022-09-04T10:34:16.586Z,35.69
2022-09-04T10:37:07.642Z,36.06
2022-09-04T10:40:12.108Z,36.74
2022-09-04T10:43:16.407Z,36.65
2022-09-04T10:46:23.022Z,35.80
2022-09-04T10:48:59.384Z,35.36
2022-09-04T10:51:45.653Z,35.19
2022-09-04T10:54:32.638Z,35.12
2022-09-04T10:57:04.897Z,35.35
2022-09-04T10:59:58.381Z,34.99
2022-09-04T11:02:45.160Z,35.52
2022-09-04T11:05:44.810Z,34.86
2022-09-04T11:08:42.779Z,36.10
2022-09-04T11:11:40.546Z,35.96
2022-09-04T11:14:38.545Z,34.92
2022-09-04T11:17:24.305Z,35.16
2022-09-04T11:20:19.157Z,35.29
2022-09-04T11:23:13.767Z,36.00
2022-09-04T11:25:52.065Z,36.33
2022-09-04T11:28:56.930Z,35.77
2022-09-04T11:31:40.147Z,35.37
2022-09-04T11:34:19.993Z,35.72
2022-09-04T11:37:05.946Z,36.02
2022-09-04T11:39:48.177Z,36.08
2022-09-04T11:42:40.472Z,36.17
2022-09-04T11:45:26.967Z,36.51
2022-09-04T11:48:13.996Z,37.54
2022-09-04T11:51:05.594Z,36.76
2022-09-04T11:53:56.645Z,36.92
2022-09-04T11:56:41.784Z,36.98
2022-09-04T11:59:11.063Z,37.97
2022-09-04T12:01:56.393Z,37.71
2022-09-04T12:05:01.110Z,37.36
2022-09-04T12:07:42.929Z,37.24
2022-09-04T12:10:57.853Z,36.91
2022-09-04T12:13:57.403Z,37.08
2022-09-04T12:16:52.884Z,38.25
2022-09-04T12:20:08.099Z,37.58
2022-09-04T12:22:54.500Z,36.42
2022-09-04T12:25:35.617Z,36.75
2022-09-04T12:28:24.653Z,36.42
2022-09-04T12:31:29.616Z,37.01
2022-09-04T12:34:34.298Z,37.02
2022-09-04T12:37:43.523Z,36.68
2022-09-04T12:40:34.356Z,37.39
2022-09-04T12:43:16.753Z,37.78
2022-09-04T12:46:05.864Z,37.97
2022-09-04T12:48:45.601Z,38.35
2022-09-04T12:51:16.575Z,38.18
2022-09-04T12:54:10.717Z,37.54
2022-09-04T12:56:55.465Z,37.73
2022-09-04T12:59:31.141Z,38.48
2022-09-04T13:02:21.293Z,38.18
2022-09-04T13:05:28.430Z,37.78
2022-09-04T13:08:23.849Z,38.16
2022-09-04T13:11:18.081Z,39.09
2022-09-04T13:14:15.657Z,38.40
2022-09-04T13:16:57.894Z,37.66
2022-09-04T13:19:46.427Z,37.50
2022-09-04T13:22:27.535Z,37.39
2022-09-04T13:25:33.271Z,37.28
2022-09-04T13:27:59.768Z,37.76
2022-09-04T13:30:29.180Z,37.59
2022-09-04T13:32:58.813Z,37.45
2022-09-04T13:35:41.656Z,37.92
2022-09-04T13:38:30.425Z,37.59
2022-09-04T13:41:23.893Z,37.46
2022-09-04T13:44:26.859Z,37.37
2022-09-04T13:47:04.592Z,37.16
2022-09-04T13:49:40.764Z,37.35
2022-09-04T13:52:31.908Z,36.99
2022-09-04T13:55:09.750Z,37.13
2022-09-04T13:57:42.766Z,37.56
2022-09-04T14:00:11.923Z,38.15
2022-09-04T14:02:39.150Z,37.74
2022-09-04T14:05:11.636Z,37.15
2022-09-04T14:07:44.767Z,37.11
2022-09-04T14:10:22.141Z,37.48
2022-09-04T14:13:25.610Z,37.00
2022-09-04T14:16:03.874Z,37.41
2022-09-04T14:18:51.659Z,37.43
2022-09-04T14:21:32.432Z,37.58
2022-09-04T14:24:04.893Z,36.74
2022-09-04T14:27:00.673Z,36.33
2022-09-04T14:29:27.369Z,36.78
2022-09-04T14:32:10.620Z,37.42
2022-09-04T14:34:59.165Z,37.21
2022-09-04T14:38:04.467Z,37.32
2022-09-04T14:40:59.883Z,37.16
2022-09-04T14:43:44.429Z,37.37
2022-09-04T14:46:20.669Z,37.87
2022-09-04T14:48:59.615Z,37.28
2022-09-04T14:51:26.698Z,36.87
2022-09-04T14:53:55.936Z,36.70
2022-09-04T14:56:31.572Z,36.65
2022-09-04T14:59:08.345Z,37.03
2022-09-04T15:01:55.295Z,36.48
2022-09-04T15:04:34.137Z,36.56
2022-09-04T15:07:18.893Z,36.81
2022-09-04T15:09:49.373Z,37.51
2022-09-04T15:12:25.748Z,36.98
2022-09-04T15:15:16.103Z,36.72
2022-09-04T15:17:57.401Z,36.91
2022-09-04T15:20:28.453Z,36.73
2022-09-04T15:23:31.005Z,37.14
2022-09-04T15:26:07.125Z,37.66
2022-09-04T15:28:47.290Z,36.88
2022-09-04T15:31:21.649Z,36.90
2022-09-04T15:33:48.956Z,37.03
2022-09-04T15:36:23.811Z,36.72
2022-09-04T15:38:56.785Z,36.71
2022-09-04T15:41:37.393Z,36.36
2022-09-04T15:44:14.762Z,36.43
2022-09-04T15:47:00.026Z,36.25
2022-09-04T15:49:48.737Z,36.20
2022-09-04T15:52:24.581Z,36.32
2022-09-04T15:55:00.804Z,36.60
2022-09-04T15:57:39.321Z,36.15
2022-09-04T16:00:13.024Z,36.71
2022-09-04T16:02:46.403Z,36.45
2022-09-04T16:05:23.979Z,36.19
2022-09-04T16:08:06.629Z,36.09
2022-09-04T16:10:49.049Z,36.71
2022-09-04T16:13:24.798Z,37.28
2022-09-04T16:16:03.512Z,37.68
2022-09-04T16:18:47.109Z,37.60
2022-09-04T16:21:24.516Z,37.18
2022-09-04T16:23:51.444Z,37.22
2022-09-04T16:26:26.384Z,37.32
2022-09-04T16:29:04.867Z,37.53
2022-09-04T16:31:35.264Z,37.20
2022-09-04T16:34:14.365Z,37.31
2022-09-04T16:36:46.032Z,36.89
2022-09-04T16:39:26.887Z,36.87
2022-09-04T16:42:25.292Z,36.39
2022-09-04T16:45:02.220Z,35.79
2022-09-04T16:47:40.857Z,36.31
2022-09-04T16:50:18.869Z,36.12
2022-09-04T16:53:13.005Z,36.06
2022-09-04T16:55:58.881Z,36.02
2022-09-04T16:58:54.613Z,35.82
2022-09-04T17:01:32.444Z,35.72
2022-09-04T17:04:24.351Z,35.69
2022-09-04T17:07:02.893Z,36.09
2022-09-04T17:09:56.050Z,35.79
2022-09-04T17:12:26.977Z,36.36
2022-09-04T17:15:08.006Z,36.70
2022-09-04T17:17:40.907Z,37.07
2022-09-04T17:20:21.570Z,37.73
2022-09-04T17:28:44.673Z,38.31
2022-09-04T17:29:07.542Z,38.04
2022-09-04T17:29:12.870Z,38.31
2022-09-04T17:31:52.957Z,38.09
2022-09-04T17:40:32.814Z,38.03
2022-09-04T17:40:57.150Z,38.00
2022-09-04T17:41:31.303Z,37.72
2022-09-04T17:43:59.593Z,37.34
2022-09-04T17:46:39.008Z,37.45
2022-09-04T17:49:29.493Z,37.15
2022-09-04T17:52:08.950Z,36.76
2022-09-04T17:54:49.248Z,36.70
2022-09-04T17:57:32.565Z,36.78
2022-09-04T18:00:06.758Z,36.34
2022-09-04T18:03:19.063Z,36.54
2022-09-04T18:05:53.763Z,36.13
2022-09-04T18:08:45.000Z,36.06
2022-09-04T18:11:32.564Z,35.89
2022-09-04T18:14:20.473Z,35.29
2022-09-04T18:17:11.222Z,35.25
2022-09-04T18:19:56.412Z,35.10
2022-09-04T18:22:33.566Z,34.89
2022-09-04T18:25:21.884Z,35.09
2022-09-04T18:28:12.988Z,34.34
2022-09-04T18:37:12.272Z,34.38
2022-09-04T18:37:18.592Z,34.23
2022-09-04T18:37:20.591Z,34.39
2022-09-04T18:40:15.478Z,34.09
2022-09-04T18:50:23.411Z,34.22
2022-09-04T18:50:37.750Z,33.96
2022-09-04T18:50:38.909Z,34.20
2022-09-04T18:51:54.792Z,33.87
2022-09-04T18:54:36.345Z,34.35
2022-09-04T18:57:13.384Z,33.79
2022-09-04T18:59:45.594Z,33.57
2022-09-04T19:02:28.924Z,32.96
2022-09-04T19:05:08.828Z,32.81
2022-09-04T19:07:48.901Z,32.43
2022-09-04T19:10:29.730Z,32.33
2022-09-04T19:13:10.172Z,32.74
2022-09-04T19:15:59.640Z,32.21
2022-09-04T19:18:41.608Z,31.99
2022-09-04T19:21:08.113Z,32.28
2022-09-04T19:23:42.959Z,32.48
2022-09-04T19:26:26.787Z,32.19
2022-09-04T19:29:10.824Z,32.17
2022-09-04T19:31:42.158Z,32.17
2022-09-04T19:34:35.365Z,31.90
2022-09-04T19:37:26.034Z,31.65
2022-09-04T19:45:54.954Z,31.48
2022-09-04T19:46:06.281Z,31.74
2022-09-04T19:46:14.248Z,31.67
2022-09-04T19:48:51.049Z,32.03
2022-09-04T19:53:35.190Z,31.77
2022-09-04T19:55:23.858Z,31.71
2022-09-04T19:58:09.491Z,31.54
2022-09-04T20:00:59.478Z,31.89
2022-09-04T20:03:47.944Z,31.72
2022-09-04T20:06:31.656Z,31.58
2022-09-04T20:09:16.621Z,31.75
2022-09-04T20:11:50.720Z,31.51
2022-09-04T20:14:42.625Z,32.24
2022-09-04T20:18:01.212Z,32.56
2022-09-04T20:20:56.072Z,32.48
2022-09-04T20:23:59.384Z,31.96
2022-09-04T20:26:35.604Z,31.88
2022-09-04T20:29:24.815Z,31.84
2022-09-04T20:31:59.261Z,31.55
2022-09-04T20:34:31.973Z,31.82
2022-09-04T20:37:29.152Z,31.89
2022-09-04T20:40:19.060Z,31.98
2022-09-04T20:43:03.667Z,32.17
2022-09-04T20:49:12.203Z,32.20
2022-09-04T20:52:56.436Z,31.88
2022-09-04T20:52:57.017Z,31.96
2022-09-04T20:54:50.875Z,31.44
2022-09-04T21:03:14.159Z,31.52
2022-09-04T21:03:24.515Z,31.77
2022-09-04T21:04:14.284Z,30.72
2022-09-04T21:06:53.591Z,31.30
2022-09-04T21:09:42.263Z,31.30
2022-09-04T21:12:37.597Z,31.37
2022-09-04T21:15:14.804Z,31.40
2022-09-04T21:18:29.375Z,31.18
2022-09-04T21:21:23.011Z,31.30
2022-09-04T21:24:07.940Z,30.86
2022-09-04T21:27:04.907Z,31.29
2022-09-04T21:29:59.331Z,31.29
2022-09-04T21:33:26.689Z,31.08
2022-09-04T21:36:25.494Z,30.71
2022-09-04T21:39:25.666Z,30.66
2022-09-04T21:42:29.774Z,30.44
2022-09-04T21:45:13.971Z,30.70
2022-09-04T21:48:23.320Z,29.85
2022-09-04T21:50:54.427Z,29.81
2022-09-04T21:54:00.826Z,29.55
2022-09-04T22:02:27.186Z,29.00
2022-09-04T22:02:28.296Z,29.05
2022-09-04T22:03:02.775Z,29.01
2022-09-04T22:05:47.587Z,29.15
2022-09-04T22:13:04.513Z,29.18
2022-09-04T22:13:41.884Z,29.43
2022-09-04T22:14:56.262Z,29.30
2022-09-04T22:18:13.328Z,29.59
2022-09-04T22:21:01.665Z,29.61
2022-09-04T22:24:02.901Z,29.37
2022-09-04T22:26:39.243Z,29.00
2022-09-04T22:29:23.792Z,28.96
2022-09-04T22:32:26.686Z,28.89
2022-09-04T22:35:36.143Z,28.53
2022-09-04T22:38:34.244Z,28.38
2022-09-04T22:41:28.953Z,28.45
2022-09-04T22:44:35.599Z,28.26
2022-09-04T22:47:40.986Z,28.43
2022-09-04T22:50:50.009Z,28.62
2022-09-04T22:53:26.974Z,28.76
2022-09-04T22:56:17.854Z,28.22
2022-09-04T22:59:32.666Z,28.35
2022-09-04T23:02:14.036Z,28.12
2022-09-04T23:04:56.201Z,28.19
2022-09-04T23:11:32.047Z,28.48
2022-09-04T23:13:56.902Z,28.33
2022-09-04T23:13:57.713Z,27.90
2022-09-04T23:16:45.514Z,28.50
2022-09-04T23:24:53.498Z,28.51
2022-09-04T23:26:42.220Z,28.68
2022-09-04T23:26:58.482Z,28.57
2022-09-04T23:28:58.331Z,28.16
2022-09-04T23:31:37.439Z,28.12
2022-09-04T23:34:33.288Z,28.06
2022-09-04T23:37:25.495Z,27.74
2022-09-04T23:40:07.716Z,27.89
2022-09-04T23:43:12.877Z,27.88
2022-09-04T23:45:56.603Z,27.84
2022-09-04T23:48:34.291Z,27.74
2022-09-04T23:51:09.671Z,28.05
2022-09-04T23:53:52.745Z,27.67
2022-09-04T23:56:26.469Z,27.80
2022-09-04T23:59:37.592Z,27.82
